createdAt,value
2018-09-13T00:01:07.156Z,4.67
2018-09-13T00:03:36.576Z,5.13
2018-09-13T00:06:06.021Z,5.17
2018-09-13T00:08:35.373Z,5.30
2018-09-13T00:11:04.747Z,6.43
2018-09-13T00:13:34.116Z,5.97
2018-09-13T00:16:03.497Z,5.43
2018-09-13T00:18:32.850Z,5.47
2018-09-13T00:21:02.637Z,6.03
2018-09-13T00:23:32.037Z,6.27
2018-09-13T00:26:01.424Z,5.80
2018-09-13T00:28:31.021Z,5.53
2018-09-13T00:31:00.477Z,5.40
2018-09-13T00:33:29.812Z,5.50
2018-09-13T00:35:59.207Z,6.10
2018-09-13T00:38:28.545Z,5.47
2018-09-13T00:40:57.903Z,5.83
2018-09-13T00:43:27.306Z,5.83
2018-09-13T00:45:56.624Z,6.70
2018-09-13T00:48:25.986Z,5.77
2018-09-13T00:50:55.301Z,5.57
2018-09-13T00:53:24.694Z,6.77
2018-09-13T00:55:53.988Z,5.80
2018-09-13T00:58:23.379Z,6.40
2018-09-13T01:00:52.936Z,5.80
2018-09-13T01:03:22.304Z,5.90
2018-09-13T01:05:52.661Z,6.47
2018-09-13T01:08:21.995Z,6.13
2018-09-13T01:10:51.347Z,7.00
2018-09-13T01:13:20.745Z,6.00
2018-09-13T01:15:50.104Z,5.90
2018-09-13T01:18:19.440Z,6.33
2018-09-13T01:20:48.776Z,6.20
2018-09-13T01:23:18.145Z,6.17
2018-09-13T01:25:47.513Z,5.73
2018-09-13T01:28:16.867Z,5.80
2018-09-13T01:30:46.216Z,5.90
2018-09-13T01:33:15.656Z,5.80
2018-09-13T01:35:44.974Z,6.27
2018-09-13T01:38:14.311Z,5.57
2018-09-13T01:40:43.652Z,7.03
2018-09-13T01:43:13.023Z,5.83
2018-09-13T01:45:42.351Z,6.63
2018-09-13T01:48:11.847Z,6.97
2018-09-13T01:50:41.179Z,6.60
2018-09-13T01:53:10.522Z,7.28
2018-09-13T01:55:39.887Z,6.63
2018-09-13T01:58:09.280Z,6.33
2018-09-13T02:00:38.625Z,6.40
2018-09-13T02:03:08.053Z,5.63
2018-09-13T02:05:37.955Z,5.90
2018-09-13T02:08:07.341Z,6.40
2018-09-13T02:10:36.679Z,5.67
2018-09-13T02:13:06.263Z,5.83
2018-09-13T02:15:36.805Z,5.87
2018-09-13T02:18:06.225Z,5.83
2018-09-13T02:20:35.578Z,5.90
2018-09-13T02:23:06.144Z,5.73
2018-09-13T02:25:35.501Z,6.10
2018-09-13T02:28:04.901Z,6.00
2018-09-13T02:30:34.287Z,5.47
2018-09-13T02:33:03.623Z,6.17
2018-09-13T02:35:33.029Z,7.87
2018-09-13T02:38:02.465Z,6.40
2018-09-13T02:40:31.816Z,5.77
2018-09-13T02:43:01.228Z,6.67
2018-09-13T02:45:30.613Z,5.33
2018-09-13T02:48:00.008Z,5.80
2018-09-13T02:50:29.363Z,5.97
2018-09-13T02:52:58.959Z,6.53
2018-09-13T02:55:28.317Z,7.10
2018-09-13T02:57:57.645Z,6.70
2018-09-13T03:00:26.944Z,6.13
2018-09-13T03:02:56.380Z,6.50
2018-09-13T03:05:25.786Z,6.67
2018-09-13T03:07:55.295Z,6.20
2018-09-13T03:10:24.657Z,6.10
2018-09-13T03:12:53.992Z,6.10
2018-09-13T03:15:23.334Z,6.17
2018-09-13T03:17:52.756Z,6.40
2018-09-13T03:20:22.071Z,5.47
2018-09-13T03:22:51.409Z,6.63
2018-09-13T03:25:20.781Z,6.47
2018-09-13T03:27:50.193Z,5.77
2018-09-13T03:30:19.552Z,6.67
2018-09-13T03:32:48.942Z,6.17
2018-09-13T03:35:18.424Z,6.07
2018-09-13T03:37:47.813Z,6.13
2018-09-13T03:40:17.260Z,6.60
2018-09-13T03:42:46.647Z,5.80
2018-09-13T03:45:15.999Z,6.23
2018-09-13T03:47:45.399Z,6.00
2018-09-13T03:50:14.767Z,7.58
2018-09-13T03:52:44.117Z,6.77
2018-09-13T03:55:13.473Z,8.28
2018-09-13T03:57:42.823Z,5.80
2018-09-13T04:00:12.160Z,6.53
2018-09-13T04:02:41.501Z,6.97
2018-09-13T04:05:10.871Z,6.47
2018-09-13T04:07:40.265Z,5.97
2018-09-13T04:10:09.655Z,5.90
2018-09-13T04:12:38.994Z,6.00
2018-09-13T04:15:08.408Z,6.40
2018-09-13T04:17:37.826Z,5.87
2018-09-13T04:20:07.126Z,6.10
2018-09-13T04:22:36.510Z,6.90
2018-09-13T04:25:06.536Z,7.60
2018-09-13T04:27:35.924Z,6.33
2018-09-13T04:30:05.329Z,6.70
2018-09-13T04:32:34.712Z,6.40
2018-09-13T04:35:04.075Z,7.37
2018-09-13T04:37:33.436Z,6.30
2018-09-13T04:40:02.801Z,6.87
2018-09-13T04:42:32.215Z,6.60
2018-09-13T04:45:01.585Z,6.63
2018-09-13T04:47:30.981Z,6.20
2018-09-13T04:50:00.376Z,6.33
2018-09-13T04:52:29.800Z,6.97
2018-09-13T04:54:59.144Z,6.70
2018-09-13T04:57:28.534Z,6.90
2018-09-13T04:59:57.868Z,6.20
2018-09-13T05:02:28.231Z,6.90
2018-09-13T05:04:57.580Z,6.43
2018-09-13T05:07:27.013Z,6.90
2018-09-13T05:09:56.403Z,7.30
2018-09-13T05:12:25.736Z,7.23
2018-09-13T05:14:55.193Z,7.23
2018-09-13T05:17:24.526Z,6.90
2018-09-13T05:19:54.082Z,6.73
2018-09-13T05:22:23.417Z,6.93
2018-09-13T05:24:52.747Z,6.43
2018-09-13T05:27:22.071Z,6.53
2018-09-13T05:29:51.638Z,7.53
2018-09-13T05:32:20.952Z,7.60
2018-09-13T05:34:50.377Z,7.60
2018-09-13T05:37:19.719Z,6.90
2018-09-13T05:39:49.101Z,7.33
2018-09-13T05:42:18.458Z,6.77
2018-09-13T05:44:47.827Z,6.43
2018-09-13T05:47:17.192Z,7.07
2018-09-13T05:49:46.532Z,6.87
2018-09-13T05:52:15.886Z,9.10
2018-09-13T05:54:45.243Z,6.37
2018-09-13T05:57:14.609Z,7.13
2018-09-13T05:59:44.066Z,6.80
2018-09-13T06:02:13.402Z,7.20
2018-09-13T06:04:42.768Z,6.97
2018-09-13T06:07:12.122Z,7.00
2018-09-13T06:09:41.499Z,7.17
2018-09-13T06:12:10.884Z,7.27
2018-09-13T06:14:40.219Z,6.73
2018-09-13T06:17:09.609Z,7.20
2018-09-13T06:19:39.079Z,6.80
2018-09-13T06:22:08.767Z,6.80
2018-09-13T06:24:38.113Z,9.17
2018-09-13T06:27:07.537Z,8.10
2018-09-13T06:29:37.239Z,8.40
2018-09-13T06:32:06.791Z,7.40
2018-09-13T06:34:36.112Z,8.20
2018-09-13T06:37:05.484Z,7.97
2018-09-13T06:39:34.821Z,7.33
2018-09-13T06:42:04.200Z,7.50
2018-09-13T06:44:33.549Z,7.70
2018-09-13T06:47:02.933Z,6.13
2018-09-13T06:49:32.328Z,7.00
2018-09-13T06:52:01.670Z,7.53
2018-09-13T06:54:31.010Z,7.03
2018-09-13T06:57:00.400Z,7.73
2018-09-13T06:59:29.761Z,7.33
2018-09-13T07:01:59.113Z,7.23
2018-09-13T07:04:28.475Z,7.13
2018-09-13T07:06:57.847Z,8.63
2018-09-13T07:09:27.193Z,7.63
2018-09-13T07:11:56.604Z,9.23
2018-09-13T07:14:25.960Z,8.20
2018-09-13T07:16:55.342Z,7.60
2018-09-13T07:19:24.712Z,7.03
2018-09-13T07:21:54.057Z,7.20
2018-09-13T07:24:23.477Z,6.87
2018-09-13T07:26:52.846Z,7.17
2018-09-13T07:29:22.268Z,7.17
2018-09-13T07:31:51.641Z,7.50
2018-09-13T07:34:21.010Z,6.33
2018-09-13T07:36:50.390Z,6.37
2018-09-13T07:39:19.777Z,6.70
2018-09-13T07:41:49.123Z,6.20
2018-09-13T07:44:18.492Z,6.63
2018-09-13T07:46:47.856Z,5.77
2018-09-13T07:49:17.273Z,8.73
2018-09-13T07:51:46.616Z,9.08
2018-09-13T07:54:15.973Z,7.53
2018-09-13T07:56:45.396Z,6.63
2018-09-13T07:59:15.004Z,7.10
2018-09-13T08:01:44.466Z,6.63
2018-09-13T08:04:13.895Z,7.03
2018-09-13T08:06:43.363Z,7.83
2018-09-13T08:09:13.640Z,6.53
2018-09-13T08:11:43.159Z,5.40
2018-09-13T08:14:12.599Z,5.33
2018-09-13T08:16:41.971Z,5.67
2018-09-13T08:19:11.562Z,6.03
2018-09-13T08:21:40.996Z,7.47
2018-09-13T08:24:10.276Z,6.30
2018-09-13T08:26:39.686Z,6.23
2018-09-13T08:29:09.002Z,6.03
2018-09-13T08:31:38.355Z,6.67
2018-09-13T08:34:07.713Z,6.80
2018-09-13T08:36:37.104Z,6.23
2018-09-13T08:39:10.384Z,6.70
2018-09-13T08:41:39.793Z,7.40
2018-09-13T08:44:09.202Z,7.13
2018-09-13T08:46:38.544Z,6.60
2018-09-13T08:49:07.909Z,7.53
2018-09-13T08:51:37.308Z,7.30
2018-09-13T08:54:06.670Z,7.27
2018-09-13T08:56:36.012Z,6.53
2018-09-13T08:59:05.360Z,7.53
2018-09-13T09:01:34.721Z,5.40
2018-09-13T09:04:04.109Z,5.43
2018-09-13T09:06:33.619Z,6.17
2018-09-13T09:09:03.084Z,5.03
2018-09-13T09:11:32.469Z,4.27
2018-09-13T09:14:01.784Z,4.97
2018-09-13T09:16:31.123Z,3.57
2018-09-13T09:19:00.470Z,3.80
2018-09-13T09:21:29.902Z,3.87
2018-09-13T09:23:59.320Z,3.73
2018-09-13T09:26:28.629Z,5.73
2018-09-13T09:28:58.037Z,4.60
2018-09-13T09:31:27.352Z,3.37
2018-09-13T09:33:56.723Z,3.80
2018-09-13T09:36:26.141Z,4.30
2018-09-13T09:38:55.518Z,6.20
2018-09-13T09:41:24.884Z,5.70
2018-09-13T09:43:54.256Z,7.03
2018-09-13T09:46:23.637Z,5.23
2018-09-13T09:48:53.047Z,5.60
2018-09-13T09:51:22.438Z,4.77
2018-09-13T09:53:51.899Z,6.23
2018-09-13T09:56:21.256Z,4.57
2018-09-13T09:58:50.636Z,3.73
2018-09-13T10:01:26.988Z,4.40
2018-09-13T10:03:57.842Z,2.67
2018-09-13T10:06:27.232Z,3.73
2018-09-13T10:08:57.168Z,3.13
2018-09-13T10:11:26.531Z,2.93
2018-09-13T10:13:55.928Z,3.60
2018-09-13T10:16:30.780Z,4.37
2018-09-13T10:19:05.401Z,4.30
2018-09-13T10:23:42.531Z,3.60
2018-09-13T10:26:17.082Z,3.80
2018-09-13T10:28:51.570Z,4.00
2018-09-13T10:31:26.165Z,4.07
2018-09-13T10:34:00.751Z,3.77
2018-09-13T10:36:35.289Z,3.57
2018-09-13T10:39:11.862Z,3.60
2018-09-13T10:41:46.529Z,3.00
2018-09-13T10:44:21.133Z,3.43
2018-09-13T10:46:55.560Z,4.13
2018-09-13T10:49:29.983Z,4.10
2018-09-13T10:52:04.420Z,3.57
2018-09-13T10:54:39.738Z,5.10
2018-09-13T10:57:14.317Z,3.50
2018-09-13T10:59:44.718Z,3.20
2018-09-13T11:02:14.200Z,4.10
2018-09-13T11:04:43.637Z,4.57
2018-09-13T11:07:13.044Z,3.67
2018-09-13T11:09:42.392Z,2.63
2018-09-13T11:12:11.773Z,3.00
2018-09-13T11:14:56.609Z,2.63
2018-09-13T11:17:26.693Z,3.47
2018-09-13T11:19:56.098Z,3.90
2018-09-13T11:22:25.456Z,3.80
2018-09-13T11:24:54.873Z,3.70
2018-09-13T11:27:24.278Z,3.97
2018-09-13T11:29:53.803Z,3.20
2018-09-13T11:32:23.164Z,3.50
2018-09-13T11:34:52.530Z,3.67
2018-09-13T11:37:21.922Z,3.10
2018-09-13T11:39:51.444Z,3.87
2018-09-13T11:42:20.745Z,3.73
2018-09-13T11:44:50.141Z,4.23
2018-09-13T11:47:19.501Z,3.70
2018-09-13T11:49:49.222Z,3.90
2018-09-13T11:52:18.616Z,3.23
2018-09-13T11:54:48.062Z,3.43
2018-09-13T11:57:17.411Z,2.10
2018-09-13T11:59:46.824Z,3.70
2018-09-13T12:02:16.248Z,3.77
2018-09-13T12:04:45.625Z,4.67
2018-09-13T12:07:14.965Z,3.93
2018-09-13T12:09:44.536Z,3.83
2018-09-13T12:12:13.930Z,3.73
2018-09-13T12:14:43.415Z,4.73
2018-09-13T12:17:12.749Z,4.33
2018-09-13T12:19:42.164Z,3.97
2018-09-13T12:22:11.573Z,4.87
2018-09-13T12:24:41.035Z,4.80
2018-09-13T12:27:10.406Z,3.90
2018-09-13T12:29:39.808Z,4.43
2018-09-13T12:32:09.164Z,3.00
2018-09-13T12:34:38.520Z,3.63
2018-09-13T12:37:07.903Z,3.67
2018-09-13T12:39:37.297Z,4.17
2018-09-13T12:42:06.687Z,4.50
2018-09-13T12:44:36.072Z,4.37
2018-09-13T12:47:05.501Z,4.33
2018-09-13T12:49:34.890Z,4.20
2018-09-13T12:52:04.270Z,4.17
2018-09-13T12:54:33.727Z,3.70
2018-09-13T12:57:03.162Z,3.63
2018-09-13T12:59:32.504Z,3.43
2018-09-13T13:02:01.946Z,3.40
2018-09-13T13:04:31.367Z,3.57
2018-09-13T13:07:00.763Z,2.60
2018-09-13T13:09:30.127Z,3.50
2018-09-13T13:11:59.565Z,3.73
2018-09-13T13:14:28.994Z,4.00
2018-09-13T13:17:00.156Z,3.53
2018-09-13T13:19:29.653Z,3.60
2018-09-13T13:21:59.001Z,6.40
2018-09-13T13:24:28.384Z,4.40
2018-09-13T13:26:57.835Z,5.03
2018-09-13T13:29:27.190Z,5.23
2018-09-13T13:31:56.593Z,4.23
2018-09-13T13:34:25.983Z,3.87
2018-09-13T13:36:55.392Z,4.80
2018-09-13T13:39:24.788Z,4.93
2018-09-13T13:41:54.185Z,4.83
2018-09-13T13:44:23.588Z,4.27
2018-09-13T13:46:52.994Z,3.77
2018-09-13T13:49:22.432Z,3.37
2018-09-13T13:51:51.803Z,4.57
2018-09-13T13:54:22.032Z,4.37
2018-09-13T13:56:51.447Z,3.90
2018-09-13T13:59:20.874Z,3.23
2018-09-13T14:01:50.289Z,3.50
2018-09-13T14:04:19.719Z,3.33
2018-09-13T14:06:49.094Z,4.80
2018-09-13T14:09:18.457Z,3.20
2018-09-13T14:11:47.834Z,5.00
2018-09-13T14:14:17.230Z,4.23
2018-09-13T14:16:46.614Z,4.20
2018-09-13T14:19:16.232Z,4.00
2018-09-13T14:21:45.597Z,3.50
2018-09-13T14:24:14.989Z,4.20
2018-09-13T14:26:44.601Z,4.70
2018-09-13T14:29:14.057Z,3.33
2018-09-13T14:31:43.448Z,3.63
2018-09-13T14:34:12.799Z,3.90
2018-09-13T14:36:42.193Z,3.67
2018-09-13T14:39:12.172Z,3.80
2018-09-13T14:41:41.580Z,4.53
2018-09-13T14:44:10.966Z,3.77
2018-09-13T14:46:40.345Z,3.70
2018-09-13T14:49:09.765Z,3.60
2018-09-13T14:51:39.180Z,3.10
2018-09-13T14:54:08.668Z,2.90
2018-09-13T14:56:38.072Z,3.30
2018-09-13T14:59:07.642Z,3.00
2018-09-13T15:01:37.018Z,3.13
2018-09-13T15:04:06.465Z,3.23
2018-09-13T15:06:35.904Z,3.70
2018-09-13T15:09:08.468Z,3.60
2018-09-13T15:11:37.886Z,3.43
2018-09-13T15:14:07.260Z,3.67
2018-09-13T15:16:36.646Z,3.93
2018-09-13T15:19:06.055Z,6.40
2018-09-13T15:21:35.501Z,4.37
2018-09-13T15:24:04.952Z,3.70
2018-09-13T15:26:34.339Z,3.70
2018-09-13T15:29:03.767Z,3.70
2018-09-13T15:31:33.221Z,3.20
2018-09-13T15:34:02.564Z,3.73
2018-09-13T15:36:32.074Z,4.17
2018-09-13T15:39:01.466Z,3.50
2018-09-13T15:41:30.820Z,4.33
2018-09-13T15:44:00.258Z,4.00
2018-09-13T15:46:29.668Z,4.47
2018-09-13T15:48:59.116Z,4.43
2018-09-13T15:51:28.540Z,3.97
2018-09-13T15:53:57.898Z,3.70
2018-09-13T15:56:27.252Z,4.33
2018-09-13T15:58:56.732Z,4.70
2018-09-13T16:01:26.099Z,4.27
2018-09-13T16:03:55.500Z,4.37
2018-09-13T16:06:25.073Z,4.77
2018-09-13T16:08:54.467Z,3.20
2018-09-13T16:11:23.822Z,3.00
2018-09-13T16:13:53.293Z,3.70
2018-09-13T16:16:22.689Z,3.80
2018-09-13T16:18:52.067Z,4.57
2018-09-13T16:21:21.522Z,4.30
2018-09-13T16:23:50.920Z,4.57
2018-09-13T16:26:20.360Z,5.00
2018-09-13T16:28:49.760Z,4.77
2018-09-13T16:31:19.341Z,4.27
2018-09-13T16:33:48.741Z,4.20
2018-09-13T16:36:25.682Z,4.50
2018-09-13T16:39:00.481Z,4.67
2018-09-13T16:41:40.345Z,4.77
2018-09-13T16:44:13.800Z,5.07
2018-09-13T16:46:48.461Z,5.03
2018-09-13T16:49:17.808Z,4.53
2018-09-13T16:51:47.205Z,5.07
2018-09-13T16:54:16.617Z,4.40
2018-09-13T16:56:46.059Z,4.63
2018-09-13T16:59:15.425Z,4.57
2018-09-13T17:01:44.840Z,4.20
2018-09-13T17:04:14.292Z,4.50
2018-09-13T17:06:43.760Z,4.60
2018-09-13T17:09:13.158Z,4.47
2018-09-13T17:11:42.574Z,4.63
2018-09-13T17:14:11.924Z,4.60
2018-09-13T17:16:41.343Z,5.05
2018-09-13T17:19:10.703Z,4.77
2018-09-13T17:21:40.149Z,4.87
2018-09-13T17:24:09.538Z,4.60
2018-09-13T17:26:38.910Z,4.50
2018-09-13T17:29:08.275Z,5.10
2018-09-13T17:31:37.692Z,4.33
2018-09-13T17:34:07.097Z,4.30
2018-09-13T17:36:36.513Z,4.47
2018-09-13T17:39:10.115Z,4.30
2018-09-13T17:41:39.569Z,4.33
2018-09-13T17:44:09.072Z,4.70
2018-09-13T17:46:39.693Z,4.23
2018-09-13T17:49:09.045Z,4.60
2018-09-13T17:51:38.999Z,4.90
2018-09-13T17:54:08.388Z,4.50
2018-09-13T17:56:37.843Z,4.67
2018-09-13T17:59:07.278Z,5.90
2018-09-13T18:01:36.691Z,4.73
2018-09-13T18:04:06.217Z,5.10
2018-09-13T18:06:35.674Z,5.80
2018-09-13T18:09:08.002Z,6.33
2018-09-13T18:11:37.506Z,6.80
2018-09-13T18:14:07.049Z,6.87
2018-09-13T18:16:36.524Z,6.33
2018-09-13T18:19:05.921Z,5.93
2018-09-13T18:21:35.378Z,6.10
2018-09-13T18:24:04.865Z,6.20
2018-09-13T18:26:34.276Z,5.93
2018-09-13T18:29:05.803Z,5.30
2018-09-13T18:31:37.252Z,5.13
2018-09-13T18:34:08.859Z,4.90
2018-09-13T18:36:40.290Z,4.73
2018-09-13T18:39:12.900Z,5.73
2018-09-13T18:41:44.011Z,5.70
2018-09-13T18:44:15.276Z,5.77
2018-09-13T18:46:44.697Z,5.87
2018-09-13T18:49:14.175Z,5.07
2018-09-13T18:51:43.675Z,4.97
2018-09-13T18:54:13.219Z,6.10
2018-09-13T18:56:42.565Z,5.93
2018-09-13T18:59:11.992Z,5.63
2018-09-13T19:01:41.420Z,5.77
2018-09-13T19:04:10.934Z,5.20
2018-09-13T19:06:40.436Z,5.30
2018-09-13T19:09:11.076Z,5.20
2018-09-13T19:11:40.546Z,5.90
2018-09-13T19:14:10.029Z,5.87
2018-09-13T19:16:39.461Z,6.00
2018-09-13T19:19:08.911Z,5.03
2018-09-13T19:21:38.403Z,5.13
2018-09-13T19:24:08.067Z,4.77
2018-09-13T19:26:37.567Z,5.67
2018-09-13T19:29:07.063Z,5.23
2018-09-13T19:31:36.642Z,5.63
2018-09-13T19:34:06.234Z,7.10
2018-09-13T19:36:35.721Z,8.57
2018-09-13T19:39:08.665Z,8.60
2018-09-13T19:41:38.207Z,7.30
2018-09-13T19:44:07.761Z,6.03
2018-09-13T19:46:37.141Z,6.13
2018-09-13T19:49:06.601Z,6.20
2018-09-13T19:51:36.071Z,8.58
2018-09-13T19:54:05.538Z,6.33
2018-09-13T19:56:34.996Z,6.63
2018-09-13T19:59:04.470Z,5.50
2018-09-13T20:01:33.906Z,6.30
2018-09-13T20:04:03.357Z,5.93
2018-09-13T20:06:32.870Z,5.80
2018-09-13T20:09:02.340Z,5.97
2018-09-13T20:11:31.837Z,5.60
2018-09-13T20:14:02.464Z,7.00
2018-09-13T20:16:32.095Z,6.60
2018-09-13T20:19:01.522Z,6.30
2018-09-13T20:21:30.980Z,6.57
2018-09-13T20:24:00.747Z,6.50
2018-09-13T20:26:30.717Z,6.70
2018-09-13T20:29:00.225Z,6.37
2018-09-13T20:31:29.603Z,6.97
2018-09-13T20:33:59.034Z,6.50
2018-09-13T20:36:28.407Z,7.10
2018-09-13T20:38:57.881Z,7.03
2018-09-13T20:41:27.239Z,7.40
2018-09-13T20:43:56.745Z,6.57
2018-09-13T20:46:26.125Z,6.10
2018-09-13T20:48:55.537Z,6.67
2018-09-13T20:51:25.002Z,6.20
2018-09-13T20:53:54.458Z,5.90
2018-09-13T20:56:23.873Z,6.77
2018-09-13T20:58:53.293Z,6.33
2018-09-13T21:01:22.622Z,6.30
2018-09-13T21:03:52.005Z,6.63
2018-09-13T21:06:21.405Z,6.60
2018-09-13T21:08:50.874Z,8.13
2018-09-13T21:11:20.268Z,6.63
2018-09-13T21:13:49.682Z,6.03
2018-09-13T21:16:19.146Z,5.63
2018-09-13T21:18:48.533Z,5.73
2018-09-13T21:21:17.913Z,5.63
2018-09-13T21:23:47.471Z,6.20
2018-09-13T21:26:16.855Z,6.10
2018-09-13T21:28:46.205Z,6.43
2018-09-13T21:31:15.614Z,6.60
2018-09-13T21:33:45.052Z,6.27
2018-09-13T21:36:14.458Z,6.47
2018-09-13T21:38:43.848Z,5.77
2018-09-13T21:41:13.324Z,6.00
2018-09-13T21:43:42.701Z,5.77
2018-09-13T21:46:12.146Z,6.00
2018-09-13T21:48:41.514Z,7.07
2018-09-13T21:51:10.879Z,7.40
2018-09-13T21:53:40.235Z,7.57
2018-09-13T21:56:09.599Z,7.37
2018-09-13T21:58:38.976Z,7.47
2018-09-13T22:01:08.326Z,7.40
2018-09-13T22:03:37.703Z,7.90
2018-09-13T22:06:07.150Z,7.13
2018-09-13T22:08:36.548Z,8.00
2018-09-13T22:11:06.001Z,8.00
2018-09-13T22:13:35.322Z,7.70
2018-09-13T22:16:04.736Z,7.70
2018-09-13T22:18:34.124Z,7.47
2018-09-13T22:21:03.464Z,8.13
2018-09-13T22:23:32.848Z,7.93
2018-09-13T22:26:02.330Z,8.33
2018-09-13T22:28:31.692Z,7.77
2018-09-13T22:31:01.078Z,7.40
2018-09-13T22:33:30.407Z,8.23
2018-09-13T22:35:59.764Z,7.63
2018-09-13T22:38:29.157Z,7.33
2018-09-13T22:40:58.541Z,7.40
2018-09-13T22:43:32.033Z,8.23
2018-09-13T22:46:01.441Z,7.87
2018-09-13T22:48:30.784Z,7.00
2018-09-13T22:51:00.226Z,7.43
2018-09-13T22:53:29.637Z,7.53
2018-09-13T22:55:58.925Z,6.43
2018-09-13T22:58:28.446Z,7.33
2018-09-13T23:00:58.298Z,7.47
2018-09-13T23:03:27.793Z,7.30
2018-09-13T23:05:57.221Z,9.90
2018-09-13T23:08:26.658Z,7.70
2018-09-13T23:10:56.183Z,10.28
2018-09-13T23:13:25.642Z,7.83
2018-09-13T23:15:55.088Z,8.47
2018-09-13T23:18:24.456Z,8.73
2018-09-13T23:20:53.849Z,8.53
2018-09-13T23:23:23.163Z,8.00
2018-09-13T23:25:52.531Z,8.43
2018-09-13T23:28:21.859Z,7.73
2018-09-13T23:30:51.250Z,7.73
2018-09-13T23:33:20.580Z,8.37
2018-09-13T23:35:50.021Z,8.07
2018-09-13T23:38:19.372Z,7.47
2018-09-13T23:40:48.849Z,7.70
2018-09-13T23:43:18.053Z,7.60
2018-09-13T23:45:47.427Z,9.40
2018-09-13T23:48:16.761Z,8.80
2018-09-13T23:50:46.110Z,7.60
2018-09-13T23:53:15.455Z,8.10
2018-09-13T23:55:44.800Z,7.87
2018-09-13T23:58:14.143Z,7.53
